sensor_id;sensor_type;location;lat;lon;timestamp;P1;durP1;ratioP1;P2;durP2;ratioP2
4001;SDS011;2015;48.670;9.060;2023-02-28T00:01:37;6.23;;;5.00;;
4001;SDS011;2015;48.670;9.060;2023-02-28T00:04:09;6.77;;;5.00;;
4001;SDS011;2015;48.670;9.060;2023-02-28T00:06:40;5.87;;;4.77;;
4001;SDS011;2015;48.670;9.060;2023-02-28T00:09:13;5.10;;;4.70;;
4001;SDS011;2015;48.670;9.060;2023-02-28T00:11:44;5.67;;;5.27;;
4001;SDS011;2015;48.670;9.060;2023-02-28T00:14:16;5.30;;;5.00;;
4001;SDS011;2015;48.670;9.060;2023-02-28T00:16:48;6.63;;;5.07;;
4001;SDS011;2015;48.670;9.060;2023-02-28T00:19:19;4.13;;;3.93;;
4001;SDS011;2015;48.670;9.060;2023-02-28T00:21:51;5.43;;;5.03;;
4001;SDS011;2015;48.670;9.060;2023-02-28T00:24:23;5.00;;;4.60;;
4001;SDS011;2015;48.670;9.060;2023-02-28T00:26:55;5.70;;;4.90;;
4001;SDS011;2015;48.670;9.060;2023-02-28T00:29:26;6.13;;;5.63;;
4001;SDS011;2015;48.670;9.060;2023-02-28T00:31:58;4.27;;;3.97;;
4001;SDS011;2015;48.670;9.060;2023-02-28T00:34:30;5.00;;;4.70;;
4001;SDS011;2015;48.670;9.060;2023-02-28T00:37:02;5.73;;;5.23;;
4001;SDS011;2015;48.670;9.060;2023-02-28T00:39:37;6.10;;;5.20;;
4001;SDS011;2015;48.670;9.060;2023-02-28T00:42:09;5.30;;;4.90;;
4001;SDS011;2015;48.670;9.060;2023-02-28T00:44:41;5.87;;;5.40;;
4001;SDS011;2015;48.670;9.060;2023-02-28T00:47:13;6.60;;;5.67;;
4001;SDS011;2015;48.670;9.060;2023-02-28T00:49:45;4.50;;;4.20;;
4001;SDS011;2015;48.670;9.060;2023-02-28T00:52:17;5.90;;;5.00;;
4001;SDS011;2015;48.670;9.060;2023-02-28T00:54:49;6.80;;;5.60;;
4001;SDS011;2015;48.670;9.060;2023-02-28T00:57:20;5.23;;;4.70;;
4001;SDS011;2015;48.670;9.060;2023-02-28T00:59:52;5.32;;;4.88;;
4001;SDS011;2015;48.670;9.060;2023-02-28T01:02:25;5.60;;;5.10;;
4001;SDS011;2015;48.670;9.060;2023-02-28T01:04:57;5.60;;;5.10;;
4001;SDS011;2015;48.670;9.060;2023-02-28T01:07:29;6.63;;;6.00;;
4001;SDS011;2015;48.670;9.060;2023-02-28T01:10:00;6.30;;;5.73;;
4001;SDS011;2015;48.670;9.060;2023-02-28T01:12:32;5.70;;;5.20;;
4001;SDS011;2015;48.670;9.060;2023-02-28T01:15:04;5.90;;;5.20;;
4001;SDS011;2015;48.670;9.060;2023-02-28T01:17:36;5.63;;;5.20;;
4001;SDS011;2015;48.670;9.060;2023-02-28T01:20:08;5.85;;;5.45;;
4001;SDS011;2015;48.670;9.060;2023-02-28T01:22:41;5.53;;;5.03;;
4001;SDS011;2015;48.670;9.060;2023-02-28T01:25:12;6.30;;;5.33;;
4001;SDS011;2015;48.670;9.060;2023-02-28T01:27:44;6.10;;;5.70;;
4001;SDS011;2015;48.670;9.060;2023-02-28T01:30:16;5.57;;;5.17;;
4001;SDS011;2015;48.670;9.060;2023-02-28T01:32:48;5.73;;;5.20;;
4001;SDS011;2015;48.670;9.060;2023-02-28T01:35:21;7.00;;;6.40;;
4001;SDS011;2015;48.670;9.060;2023-02-28T01:37:52;8.00;;;5.20;;
4001;SDS011;2015;48.670;9.060;2023-02-28T01:40:24;6.20;;;5.20;;
4001;SDS011;2015;48.670;9.060;2023-02-28T01:42:56;5.70;;;5.20;;
4001;SDS011;2015;48.670;9.060;2023-02-28T01:45:29;6.43;;;5.80;;
4001;SDS011;2015;48.670;9.060;2023-02-28T01:48:03;6.73;;;5.03;;
4001;SDS011;2015;48.670;9.060;2023-02-28T01:50:39;7.63;;;5.77;;
4001;SDS011;2015;48.670;9.060;2023-02-28T01:53:16;7.10;;;4.93;;
4001;SDS011;2015;48.670;9.060;2023-02-28T01:55:52;9.00;;;6.17;;
4001;SDS011;2015;48.670;9.060;2023-02-28T01:58:25;5.77;;;5.47;;
4001;SDS011;2015;48.670;9.060;2023-02-28T02:00:57;6.43;;;4.97;;
4001;SDS011;2015;48.670;9.060;2023-02-28T02:03:28;7.77;;;5.87;;
4001;SDS011;2015;48.670;9.060;2023-02-28T02:06:01;7.70;;;5.93;;
4001;SDS011;2015;48.670;9.060;2023-02-28T02:08:33;5.90;;;5.50;;
4001;SDS011;2015;48.670;9.060;2023-02-28T02:11:05;7.30;;;5.57;;
4001;SDS011;2015;48.670;9.060;2023-02-28T02:28:56;6.27;;;5.93;;
4001;SDS011;2015;48.670;9.060;2023-02-28T02:34:58;6.17;;;5.77;;
4001;SDS011;2015;48.670;9.060;2023-02-28T02:40:23;7.20;;;6.33;;
4001;SDS011;2015;48.670;9.060;2023-02-28T02:43:06;6.60;;;6.10;;
4001;SDS011;2015;48.670;9.060;2023-02-28T02:45:45;6.97;;;6.37;;
4001;SDS011;2015;48.670;9.060;2023-02-28T02:48:26;9.18;;;6.53;;
4001;SDS011;2015;48.670;9.060;2023-02-28T02:51:03;7.77;;;6.13;;
4001;SDS011;2015;48.670;9.060;2023-02-28T02:53:50;6.57;;;5.53;;
4001;SDS011;2015;48.670;9.060;2023-02-28T02:56:31;7.20;;;6.50;;
4001;SDS011;2015;48.670;9.060;2023-02-28T02:59:06;6.23;;;5.63;;
4001;SDS011;2015;48.670;9.060;2023-02-28T03:01:40;6.27;;;5.83;;
4001;SDS011;2015;48.670;9.060;2023-02-28T03:04:14;7.50;;;5.47;;
4001;SDS011;2015;48.670;9.060;2023-02-28T03:06:50;7.73;;;5.73;;
4001;SDS011;2015;48.670;9.060;2023-02-28T03:09:26;9.02;;;6.70;;
4001;SDS011;2015;48.670;9.060;2023-02-28T03:11:58;7.23;;;6.70;;
4001;SDS011;2015;48.670;9.060;2023-02-28T03:17:27;7.17;;;6.57;;
4001;SDS011;2015;48.670;9.060;2023-02-28T03:20:54;7.70;;;7.10;;
4001;SDS011;2015;48.670;9.060;2023-02-28T03:23:19;6.50;;;6.00;;
4001;SDS011;2015;48.670;9.060;2023-02-28T03:26:07;10.10;;;7.13;;
4001;SDS011;2015;48.670;9.060;2023-02-28T03:28:59;7.73;;;7.03;;
4001;SDS011;2015;48.670;9.060;2023-02-28T03:32:06;7.20;;;6.40;;
4001;SDS011;2015;48.670;9.060;2023-02-28T03:34:37;6.40;;;6.00;;
4001;SDS011;2015;48.670;9.060;2023-02-28T03:37:11;8.03;;;6.80;;
4001;SDS011;2015;48.670;9.060;2023-02-28T03:39:48;8.13;;;7.53;;
4001;SDS011;2015;48.670;9.060;2023-02-28T03:42:26;7.23;;;6.53;;
4001;SDS011;2015;48.670;9.060;2023-02-28T03:45:01;9.30;;;7.77;;
4001;SDS011;2015;48.670;9.060;2023-02-28T03:47:44;9.03;;;7.20;;
4001;SDS011;2015;48.670;9.060;2023-02-28T03:53:30;8.37;;;7.20;;
4001;SDS011;2015;48.670;9.060;2023-02-28T04:01:38;8.63;;;6.37;;
4001;SDS011;2015;48.670;9.060;2023-02-28T04:04:15;8.85;;;7.80;;
4001;SDS011;2015;48.670;9.060;2023-02-28T04:06:49;10.47;;;7.90;;
4001;SDS011;2015;48.670;9.060;2023-02-28T04:09:22;9.67;;;7.50;;
4001;SDS011;2015;48.670;9.060;2023-02-28T04:11:54;10.30;;;7.90;;
4001;SDS011;2015;48.670;9.060;2023-02-28T04:14:29;7.67;;;6.80;;
4001;SDS011;2015;48.670;9.060;2023-02-28T04:17:00;7.33;;;6.83;;
4001;SDS011;2015;48.670;9.060;2023-02-28T04:19:32;8.63;;;7.77;;
4001;SDS011;2015;48.670;9.060;2023-02-28T04:22:04;8.97;;;8.10;;
4001;SDS011;2015;48.670;9.060;2023-02-28T04:24:36;7.90;;;7.17;;
4001;SDS011;2015;48.670;9.060;2023-02-28T04:27:08;7.33;;;6.57;;
4001;SDS011;2015;48.670;9.060;2023-02-28T04:29:40;8.20;;;7.60;;
4001;SDS011;2015;48.670;9.060;2023-02-28T04:32:15;8.43;;;7.63;;
4001;SDS011;2015;48.670;9.060;2023-02-28T04:34:47;8.50;;;7.80;;
4001;SDS011;2015;48.670;9.060;2023-02-28T04:37:19;13.13;;;8.00;;
4001;SDS011;2015;48.670;9.060;2023-02-28T04:39:51;9.00;;;8.10;;
4001;SDS011;2015;48.670;9.060;2023-02-28T04:42:23;9.70;;;7.10;;
4001;SDS011;2015;48.670;9.060;2023-02-28T04:44:55;8.63;;;7.83;;
4001;SDS011;2015;48.670;9.060;2023-02-28T04:47:26;8.97;;;8.07;;
4001;SDS011;2015;48.670;9.060;2023-02-28T04:49:58;7.10;;;6.13;;
4001;SDS011;2015;48.670;9.060;2023-02-28T04:52:30;8.60;;;7.70;;
4001;SDS011;2015;48.670;9.060;2023-02-28T04:55:02;9.30;;;8.40;;
4001;SDS011;2015;48.670;9.060;2023-02-28T04:57:33;7.93;;;7.23;;
4001;SDS011;2015;48.670;9.060;2023-02-28T05:00:05;10.40;;;9.30;;
4001;SDS011;2015;48.670;9.060;2023-02-28T05:02:39;9.13;;;8.33;;
4001;SDS011;2015;48.670;9.060;2023-02-28T05:05:11;10.40;;;7.90;;
4001;SDS011;2015;48.670;9.060;2023-02-28T05:07:49;10.33;;;9.33;;
4001;SDS011;2015;48.670;9.060;2023-02-28T05:10:21;8.33;;;7.43;;
4001;SDS011;2015;48.670;9.060;2023-02-28T05:12:53;8.37;;;7.70;;
4001;SDS011;2015;48.670;9.060;2023-02-28T05:15:25;10.70;;;8.43;;
4001;SDS011;2015;48.670;9.060;2023-02-28T05:17:56;9.10;;;8.20;;
4001;SDS011;2015;48.670;9.060;2023-02-28T05:20:28;8.97;;;7.70;;
4001;SDS011;2015;48.670;9.060;2023-02-28T05:23:00;12.30;;;8.63;;
4001;SDS011;2015;48.670;9.060;2023-02-28T05:25:33;13.93;;;7.70;;
4001;SDS011;2015;48.670;9.060;2023-02-28T05:28:04;10.47;;;7.83;;
4001;SDS011;2015;48.670;9.060;2023-02-28T05:30:36;13.57;;;8.47;;
4001;SDS011;2015;48.670;9.060;2023-02-28T05:33:10;10.52;;;9.27;;
4001;SDS011;2015;48.670;9.060;2023-02-28T05:35:42;10.10;;;8.73;;
4001;SDS011;2015;48.670;9.060;2023-02-28T05:38:14;8.70;;;7.83;;
4001;SDS011;2015;48.670;9.060;2023-02-28T05:40:46;8.73;;;7.80;;
4001;SDS011;2015;48.670;9.060;2023-02-28T05:43:18;11.67;;;9.77;;
4001;SDS011;2015;48.670;9.060;2023-02-28T05:45:50;14.03;;;8.80;;
4001;SDS011;2015;48.670;9.060;2023-02-28T05:48:21;8.87;;;8.00;;
4001;SDS011;2015;48.670;9.060;2023-02-28T05:50:53;13.70;;;9.27;;
4001;SDS011;2015;48.670;9.060;2023-02-28T05:53:25;9.27;;;8.40;;
4001;SDS011;2015;48.670;9.060;2023-02-28T05:55:57;10.47;;;9.20;;
4001;SDS011;2015;48.670;9.060;2023-02-28T05:58:29;9.70;;;8.10;;
4001;SDS011;2015;48.670;9.060;2023-02-28T06:01:18;12.27;;;7.90;;
4001;SDS011;2015;48.670;9.060;2023-02-28T06:04:03;11.30;;;8.77;;
4001;SDS011;2015;48.670;9.060;2023-02-28T06:06:36;10.10;;;9.10;;
4001;SDS011;2015;48.670;9.060;2023-02-28T06:09:08;11.03;;;9.90;;
4001;SDS011;2015;48.670;9.060;2023-02-28T06:11:40;12.40;;;9.27;;
4001;SDS011;2015;48.670;9.060;2023-02-28T06:14:16;12.20;;;10.03;;
4001;SDS011;2015;48.670;9.060;2023-02-28T06:16:49;9.07;;;8.27;;
4001;SDS011;2015;48.670;9.060;2023-02-28T06:19:21;14.73;;;8.90;;
4001;SDS011;2015;48.670;9.060;2023-02-28T06:21:54;10.47;;;8.90;;
4001;SDS011;2015;48.670;9.060;2023-02-28T06:24:27;11.87;;;9.27;;
4001;SDS011;2015;48.670;9.060;2023-02-28T06:26:59;14.30;;;9.10;;
4001;SDS011;2015;48.670;9.060;2023-02-28T06:29:36;10.10;;;9.17;;
4001;SDS011;2015;48.670;9.060;2023-02-28T06:32:10;15.03;;;9.90;;
4001;SDS011;2015;48.670;9.060;2023-02-28T06:34:42;15.80;;;9.87;;
4001;SDS011;2015;48.670;9.060;2023-02-28T06:37:14;13.27;;;8.43;;
4001;SDS011;2015;48.670;9.060;2023-02-28T06:39:46;9.80;;;8.03;;
4001;SDS011;2015;48.670;9.060;2023-02-28T06:42:18;13.80;;;9.67;;
4001;SDS011;2015;48.670;9.060;2023-02-28T06:44:51;9.77;;;8.80;;
4001;SDS011;2015;48.670;9.060;2023-02-28T06:47:23;14.93;;;9.53;;
4001;SDS011;2015;48.670;9.060;2023-02-28T06:49:55;10.20;;;9.20;;
4001;SDS011;2015;48.670;9.060;2023-02-28T06:52:26;9.20;;;8.40;;
4001;SDS011;2015;48.670;9.060;2023-02-28T06:54:58;11.73;;;9.40;;
4001;SDS011;2015;48.670;9.060;2023-02-28T06:57:33;16.50;;;8.43;;
4001;SDS011;2015;48.670;9.060;2023-02-28T07:00:07;13.63;;;9.70;;
4001;SDS011;2015;48.670;9.060;2023-02-28T07:02:40;14.70;;;9.90;;
4001;SDS011;2015;48.670;9.060;2023-02-28T07:05:12;10.47;;;9.33;;
4001;SDS011;2015;48.670;9.060;2023-02-28T07:07:44;11.37;;;9.43;;
4001;SDS011;2015;48.670;9.060;2023-02-28T07:10:18;9.97;;;8.93;;
4001;SDS011;2015;48.670;9.060;2023-02-28T07:12:50;14.00;;;10.80;;
4001;SDS011;2015;48.670;9.060;2023-02-28T07:15:22;10.37;;;9.13;;
4001;SDS011;2015;48.670;9.060;2023-02-28T07:17:54;17.60;;;10.90;;
4001;SDS011;2015;48.670;9.060;2023-02-28T07:20:27;13.87;;;9.60;;
4001;SDS011;2015;48.670;9.060;2023-02-28T07:22:59;22.03;;;11.40;;
4001;SDS011;2015;48.670;9.060;2023-02-28T07:25:30;17.70;;;12.37;;
4001;SDS011;2015;48.670;9.060;2023-02-28T07:28:02;14.87;;;10.10;;
4001;SDS011;2015;48.670;9.060;2023-02-28T07:30:34;10.87;;;9.60;;
4001;SDS011;2015;48.670;9.060;2023-02-28T07:33:06;19.13;;;11.10;;
4001;SDS011;2015;48.670;9.060;2023-02-28T07:35:37;17.60;;;10.33;;
4001;SDS011;2015;48.670;9.060;2023-02-28T07:38:09;13.63;;;11.03;;
4001;SDS011;2015;48.670;9.060;2023-02-28T07:40:41;12.17;;;10.77;;
4001;SDS011;2015;48.670;9.060;2023-02-28T07:43:13;14.20;;;10.60;;
4001;SDS011;2015;48.670;9.060;2023-02-28T07:45:44;15.87;;;11.20;;
4001;SDS011;2015;48.670;9.060;2023-02-28T07:48:16;15.90;;;11.67;;
4001;SDS011;2015;48.670;9.060;2023-02-28T07:50:57;12.20;;;10.90;;
4001;SDS011;2015;48.670;9.060;2023-02-28T07:53:30;15.70;;;9.90;;
4001;SDS011;2015;48.670;9.060;2023-02-28T07:56:02;14.90;;;10.20;;
4001;SDS011;2015;48.670;9.060;2023-02-28T07:58:34;15.13;;;11.77;;
4001;SDS011;2015;48.670;9.060;2023-02-28T08:01:09;17.97;;;11.80;;
4001;SDS011;2015;48.670;9.060;2023-02-28T08:03:42;14.03;;;11.27;;
4001;SDS011;2015;48.670;9.060;2023-02-28T08:06:23;15.33;;;10.97;;
4001;SDS011;2015;48.670;9.060;2023-02-28T08:08:55;19.87;;;12.10;;
4001;SDS011;2015;48.670;9.060;2023-02-28T08:11:27;15.60;;;11.70;;
4001;SDS011;2015;48.670;9.060;2023-02-28T08:13:59;16.15;;;12.00;;
4001;SDS011;2015;48.670;9.060;2023-02-28T08:16:31;18.83;;;12.90;;
4001;SDS011;2015;48.670;9.060;2023-02-28T08:19:03;15.20;;;12.23;;
4001;SDS011;2015;48.670;9.060;2023-02-28T08:21:35;15.03;;;12.43;;
4001;SDS011;2015;48.670;9.060;2023-02-28T08:24:07;14.80;;;12.00;;
4001;SDS011;2015;48.670;9.060;2023-02-28T08:26:39;19.50;;;12.33;;
4001;SDS011;2015;48.670;9.060;2023-02-28T08:29:11;12.90;;;10.33;;
4001;SDS011;2015;48.670;9.060;2023-02-28T08:31:42;16.30;;;10.75;;
4001;SDS011;2015;48.670;9.060;2023-02-28T08:34:15;18.67;;;11.57;;
4001;SDS011;2015;48.670;9.060;2023-02-28T08:36:47;16.73;;;10.90;;
4001;SDS011;2015;48.670;9.060;2023-02-28T08:39:19;14.90;;;11.43;;
4001;SDS011;2015;48.670;9.060;2023-02-28T08:41:51;18.80;;;13.03;;
4001;SDS011;2015;48.670;9.060;2023-02-28T08:44:36;15.20;;;11.30;;
4001;SDS011;2015;48.670;9.060;2023-02-28T08:47:08;16.17;;;12.20;;
4001;SDS011;2015;48.670;9.060;2023-02-28T08:49:40;12.03;;;10.87;;
4001;SDS011;2015;48.670;9.060;2023-02-28T08:52:12;15.02;;;12.13;;
4001;SDS011;2015;48.670;9.060;2023-02-28T08:54:44;15.70;;;12.70;;
4001;SDS011;2015;48.670;9.060;2023-02-28T08:57:15;15.43;;;11.60;;
4001;SDS011;2015;48.670;9.060;2023-02-28T08:59:47;14.20;;;11.87;;
4001;SDS011;2015;48.670;9.060;2023-02-28T09:02:19;14.63;;;11.20;;
4001;SDS011;2015;48.670;9.060;2023-02-28T09:04:51;17.57;;;13.13;;
4001;SDS011;2015;48.670;9.060;2023-02-28T09:07:22;17.67;;;12.07;;
4001;SDS011;2015;48.670;9.060;2023-02-28T09:09:54;18.50;;;13.13;;
4001;SDS011;2015;48.670;9.060;2023-02-28T09:12:26;14.30;;;12.80;;
4001;SDS011;2015;48.670;9.060;2023-02-28T09:15:03;13.50;;;10.93;;
4001;SDS011;2015;48.670;9.060;2023-02-28T09:17:35;18.37;;;13.07;;
4001;SDS011;2015;48.670;9.060;2023-02-28T09:20:07;15.20;;;11.70;;
4001;SDS011;2015;48.670;9.060;2023-02-28T09:22:39;13.77;;;12.27;;
4001;SDS011;2015;48.670;9.060;2023-02-28T09:25:11;18.00;;;13.10;;
4001;SDS011;2015;48.670;9.060;2023-02-28T09:27:43;19.33;;;12.43;;
4001;SDS011;2015;48.670;9.060;2023-02-28T09:30:16;17.70;;;11.80;;
4001;SDS011;2015;48.670;9.060;2023-02-28T09:32:48;21.90;;;13.17;;
4001;SDS011;2015;48.670;9.060;2023-02-28T09:35:23;14.43;;;12.90;;
4001;SDS011;2015;48.670;9.060;2023-02-28T09:37:55;18.87;;;11.50;;
4001;SDS011;2015;48.670;9.060;2023-02-28T09:40:27;17.03;;;12.77;;
4001;SDS011;2015;48.670;9.060;2023-02-28T09:42:59;14.60;;;11.33;;
4001;SDS011;2015;48.670;9.060;2023-02-28T09:45:32;17.77;;;11.43;;
4001;SDS011;2015;48.670;9.060;2023-02-28T09:48:28;15.57;;;11.40;;
4001;SDS011;2015;48.670;9.060;2023-02-28T09:51:12;17.77;;;13.93;;
4001;SDS011;2015;48.670;9.060;2023-02-28T09:54:01;22.57;;;12.10;;
4001;SDS011;2015;48.670;9.060;2023-02-28T09:56:37;20.40;;;13.30;;
4001;SDS011;2015;48.670;9.060;2023-02-28T09:59:23;14.63;;;12.30;;
4001;SDS011;2015;48.670;9.060;2023-02-28T10:02:02;20.20;;;13.80;;
4001;SDS011;2015;48.670;9.060;2023-02-28T10:10:23;19.50;;;12.67;;
4001;SDS011;2015;48.670;9.060;2023-02-28T10:13:01;17.30;;;11.90;;
4001;SDS011;2015;48.670;9.060;2023-02-28T10:15:37;16.10;;;12.73;;
4001;SDS011;2015;48.670;9.060;2023-02-28T10:18:11;19.43;;;12.13;;
4001;SDS011;2015;48.670;9.060;2023-02-28T10:20:46;15.57;;;12.07;;
4001;SDS011;2015;48.670;9.060;2023-02-28T10:26:20;16.83;;;12.20;;
4001;SDS011;2015;48.670;9.060;2023-02-28T10:28:51;16.67;;;12.73;;
4001;SDS011;2015;48.670;9.060;2023-02-28T10:31:24;16.40;;;12.00;;
4001;SDS011;2015;48.670;9.060;2023-02-28T10:33:56;15.90;;;10.60;;
4001;SDS011;2015;48.670;9.060;2023-02-28T10:36:28;17.08;;;12.75;;
4001;SDS011;2015;48.670;9.060;2023-02-28T10:39:00;16.40;;;13.80;;
4001;SDS011;2015;48.670;9.060;2023-02-28T10:41:32;12.73;;;11.47;;
4001;SDS011;2015;48.670;9.060;2023-02-28T10:46:49;15.67;;;12.93;;
4001;SDS011;2015;48.670;9.060;2023-02-28T10:49:23;18.03;;;11.43;;
4001;SDS011;2015;48.670;9.060;2023-02-28T10:52:00;18.00;;;12.97;;
4001;SDS011;2015;48.670;9.060;2023-02-28T10:54:33;15.07;;;12.27;;
4001;SDS011;2015;48.670;9.060;2023-02-28T10:57:18;17.63;;;12.70;;
4001;SDS011;2015;48.670;9.060;2023-02-28T11:00:15;18.10;;;12.63;;
4001;SDS011;2015;48.670;9.060;2023-02-28T11:02:52;14.57;;;11.50;;
4001;SDS011;2015;48.670;9.060;2023-02-28T11:05:25;18.43;;;11.60;;
4001;SDS011;2015;48.670;9.060;2023-02-28T11:08:14;14.43;;;12.33;;
4001;SDS011;2015;48.670;9.060;2023-02-28T11:10:55;17.63;;;12.67;;
4001;SDS011;2015;48.670;9.060;2023-02-28T11:13:33;17.90;;;12.53;;
4001;SDS011;2015;48.670;9.060;2023-02-28T11:16:10;14.87;;;12.10;;
4001;SDS011;2015;48.670;9.060;2023-02-28T11:21:32;17.03;;;11.77;;
4001;SDS011;2015;48.670;9.060;2023-02-28T11:27:24;13.47;;;12.10;;
4001;SDS011;2015;48.670;9.060;2023-02-28T11:30:02;21.27;;;13.80;;
4001;SDS011;2015;48.670;9.060;2023-02-28T11:32:35;20.13;;;12.37;;
4001;SDS011;2015;48.670;9.060;2023-02-28T11:37:41;16.03;;;12.50;;
4001;SDS011;2015;48.670;9.060;2023-02-28T11:40:14;19.23;;;14.33;;
4001;SDS011;2015;48.670;9.060;2023-02-28T11:48:40;17.37;;;11.90;;
4001;SDS011;2015;48.670;9.060;2023-02-28T11:56:46;19.57;;;14.73;;
4001;SDS011;2015;48.670;9.060;2023-02-28T12:02:24;15.80;;;13.50;;
4001;SDS011;2015;48.670;9.060;2023-02-28T12:05:20;17.83;;;14.77;;
4001;SDS011;2015;48.670;9.060;2023-02-28T12:29:10;18.37;;;12.77;;
4001;SDS011;2015;48.670;9.060;2023-02-28T12:32:16;17.17;;;13.60;;
4001;SDS011;2015;48.670;9.060;2023-02-28T12:34:58;16.70;;;13.50;;
4001;SDS011;2015;48.670;9.060;2023-02-28T12:40:23;19.70;;;14.20;;
4001;SDS011;2015;48.670;9.060;2023-02-28T12:43:03;18.87;;;14.60;;
4001;SDS011;2015;48.670;9.060;2023-02-28T12:45:53;22.40;;;14.30;;
4001;SDS011;2015;48.670;9.060;2023-02-28T12:48:55;15.07;;;13.20;;
4001;SDS011;2015;48.670;9.060;2023-02-28T12:51:28;17.90;;;14.60;;
4001;SDS011;2015;48.670;9.060;2023-02-28T12:54:09;18.93;;;13.83;;
4001;SDS011;2015;48.670;9.060;2023-02-28T12:56:54;14.93;;;13.27;;
4001;SDS011;2015;48.670;9.060;2023-02-28T12:59:38;22.63;;;13.43;;
4001;SDS011;2015;48.670;9.060;2023-02-28T13:08:03;15.23;;;12.50;;
4001;SDS011;2015;48.670;9.060;2023-02-28T13:10:50;15.63;;;13.70;;
4001;SDS011;2015;48.670;9.060;2023-02-28T13:13:29;17.20;;;13.17;;
4001;SDS011;2015;48.670;9.060;2023-02-28T13:16:06;13.83;;;12.33;;
4001;SDS011;2015;48.670;9.060;2023-02-28T13:18:44;20.63;;;12.77;;
4001;SDS011;2015;48.670;9.060;2023-02-28T13:21:27;21.70;;;14.10;;
4001;SDS011;2015;48.670;9.060;2023-02-28T13:24:02;14.30;;;12.80;;
4001;SDS011;2015;48.670;9.060;2023-02-28T13:34:38;21.87;;;14.20;;
4001;SDS011;2015;48.670;9.060;2023-02-28T13:39:53;14.80;;;13.30;;
4001;SDS011;2015;48.670;9.060;2023-02-28T13:42:33;20.17;;;14.60;;
4001;SDS011;2015;48.670;9.060;2023-02-28T13:47:43;20.97;;;15.03;;
4001;SDS011;2015;48.670;9.060;2023-02-28T13:59:00;21.15;;;15.20;;
4001;SDS011;2015;48.670;9.060;2023-02-28T14:07:23;17.03;;;13.03;;
4001;SDS011;2015;48.670;9.060;2023-02-28T14:10:07;16.63;;;13.70;;
4001;SDS011;2015;48.670;9.060;2023-02-28T14:18:22;17.00;;;14.73;;
4001;SDS011;2015;48.670;9.060;2023-02-28T14:26:56;25.70;;;14.73;;
4001;SDS011;2015;48.670;9.060;2023-02-28T14:32:51;19.50;;;13.67;;
4001;SDS011;2015;48.670;9.060;2023-02-28T14:38:18;17.80;;;12.90;;
4001;SDS011;2015;48.670;9.060;2023-02-28T14:40:54;18.93;;;14.00;;
4001;SDS011;2015;48.670;9.060;2023-02-28T14:43:28;18.50;;;14.03;;
4001;SDS011;2015;48.670;9.060;2023-02-28T14:46:01;18.20;;;13.83;;
4001;SDS011;2015;48.670;9.060;2023-02-28T14:48:36;18.00;;;13.60;;
4001;SDS011;2015;48.670;9.060;2023-02-28T14:51:08;17.45;;;14.15;;
4001;SDS011;2015;48.670;9.060;2023-02-28T14:53:40;14.83;;;13.33;;
4001;SDS011;2015;48.670;9.060;2023-02-28T14:56:19;19.47;;;12.90;;
4001;SDS011;2015;48.670;9.060;2023-02-28T14:58:54;22.00;;;13.30;;
4001;SDS011;2015;48.670;9.060;2023-02-28T15:01:27;16.00;;;11.90;;
4001;SDS011;2015;48.670;9.060;2023-02-28T15:04:00;21.13;;;13.40;;
4001;SDS011;2015;48.670;9.060;2023-02-28T15:06:34;15.17;;;12.50;;
4001;SDS011;2015;48.670;9.060;2023-02-28T15:09:06;17.03;;;13.10;;
4001;SDS011;2015;48.670;9.060;2023-02-28T15:11:39;19.10;;;12.50;;
4001;SDS011;2015;48.670;9.060;2023-02-28T15:14:15;17.07;;;12.50;;
4001;SDS011;2015;48.670;9.060;2023-02-28T15:16:57;13.97;;;12.20;;
4001;SDS011;2015;48.670;9.060;2023-02-28T15:19:34;13.77;;;12.17;;
4001;SDS011;2015;48.670;9.060;2023-02-28T15:22:14;17.30;;;11.93;;
4001;SDS011;2015;48.670;9.060;2023-02-28T15:24:51;12.73;;;11.27;;
4001;SDS011;2015;48.670;9.060;2023-02-28T15:27:25;15.03;;;12.43;;
4001;SDS011;2015;48.670;9.060;2023-02-28T15:30:04;14.50;;;12.00;;
4001;SDS011;2015;48.670;9.060;2023-02-28T15:32:38;21.03;;;13.00;;
4001;SDS011;2015;48.670;9.060;2023-02-28T15:37:55;13.57;;;11.27;;
4001;SDS011;2015;48.670;9.060;2023-02-28T15:40:29;17.70;;;12.47;;
4001;SDS011;2015;48.670;9.060;2023-02-28T15:48:45;19.10;;;13.70;;
4001;SDS011;2015;48.670;9.060;2023-02-28T15:51:34;17.27;;;14.00;;
4001;SDS011;2015;48.670;9.060;2023-02-28T15:54:12;19.50;;;12.27;;
4001;SDS011;2015;48.670;9.060;2023-02-28T15:57:03;15.47;;;12.20;;
4001;SDS011;2015;48.670;9.060;2023-02-28T15:59:42;17.43;;;12.13;;
4001;SDS011;2015;48.670;9.060;2023-02-28T16:02:36;15.77;;;11.40;;
4001;SDS011;2015;48.670;9.060;2023-02-28T16:07:41;15.20;;;11.47;;
4001;SDS011;2015;48.670;9.060;2023-02-28T16:10:14;15.70;;;11.20;;
4001;SDS011;2015;48.670;9.060;2023-02-28T16:12:46;14.40;;;12.87;;
4001;SDS011;2015;48.670;9.060;2023-02-28T16:15:19;16.70;;;12.37;;
4001;SDS011;2015;48.670;9.060;2023-02-28T16:17:54;14.60;;;11.77;;
4001;SDS011;2015;48.670;9.060;2023-02-28T16:20:27;16.13;;;12.10;;
4001;SDS011;2015;48.670;9.060;2023-02-28T16:23:00;17.47;;;12.07;;
4001;SDS011;2015;48.670;9.060;2023-02-28T16:25:35;22.00;;;13.23;;
4001;SDS011;2015;48.670;9.060;2023-02-28T16:28:19;15.20;;;11.30;;
4001;SDS011;2015;48.670;9.060;2023-02-28T16:30:54;17.80;;;11.73;;
4001;SDS011;2015;48.670;9.060;2023-02-28T16:33:26;17.23;;;12.77;;
4001;SDS011;2015;48.670;9.060;2023-02-28T16:35:58;13.10;;;11.70;;
4001;SDS011;2015;48.670;9.060;2023-02-28T16:38:30;16.10;;;12.80;;
4001;SDS011;2015;48.670;9.060;2023-02-28T16:41:02;13.93;;;12.53;;
4001;SDS011;2015;48.670;9.060;2023-02-28T16:43:34;19.23;;;12.90;;
4001;SDS011;2015;48.670;9.060;2023-02-28T16:46:08;19.47;;;13.20;;
4001;SDS011;2015;48.670;9.060;2023-02-28T16:48:42;16.17;;;13.73;;
4001;SDS011;2015;48.670;9.060;2023-02-28T16:51:15;18.03;;;12.60;;
4001;SDS011;2015;48.670;9.060;2023-02-28T16:53:47;15.57;;;11.83;;
4001;SDS011;2015;48.670;9.060;2023-02-28T16:56:22;23.30;;;13.97;;
4001;SDS011;2015;48.670;9.060;2023-02-28T16:58:57;14.63;;;13.10;;
4001;SDS011;2015;48.670;9.060;2023-02-28T17:01:32;19.03;;;12.63;;
4001;SDS011;2015;48.670;9.060;2023-02-28T17:04:04;14.57;;;11.43;;
4001;SDS011;2015;48.670;9.060;2023-02-28T17:06:36;16.70;;;13.20;;
4001;SDS011;2015;48.670;9.060;2023-02-28T17:09:10;19.20;;;13.20;;
4001;SDS011;2015;48.670;9.060;2023-02-28T17:11:48;21.05;;;14.27;;
4001;SDS011;2015;48.670;9.060;2023-02-28T17:14:20;21.03;;;14.13;;
4001;SDS011;2015;48.670;9.060;2023-02-28T17:16:52;20.13;;;13.57;;
4001;SDS011;2015;48.670;9.060;2023-02-28T17:19:24;19.40;;;13.50;;
4001;SDS011;2015;48.670;9.060;2023-02-28T17:21:56;22.20;;;15.43;;
4001;SDS011;2015;48.670;9.060;2023-02-28T17:24:27;17.30;;;12.33;;
4001;SDS011;2015;48.670;9.060;2023-02-28T17:27:01;13.87;;;11.80;;
4001;SDS011;2015;48.670;9.060;2023-02-28T17:29:33;22.03;;;13.37;;
4001;SDS011;2015;48.670;9.060;2023-02-28T17:32:05;22.05;;;13.85;;
4001;SDS011;2015;48.670;9.060;2023-02-28T17:34:48;17.23;;;13.97;;
4001;SDS011;2015;48.670;9.060;2023-02-28T17:37:19;18.57;;;14.07;;
4001;SDS011;2015;48.670;9.060;2023-02-28T17:39:51;20.17;;;13.50;;
4001;SDS011;2015;48.670;9.060;2023-02-28T17:42:23;19.53;;;13.53;;
4001;SDS011;2015;48.670;9.060;2023-02-28T17:44:55;15.13;;;13.43;;
4001;SDS011;2015;48.670;9.060;2023-02-28T17:47:26;21.40;;;13.93;;
4001;SDS011;2015;48.670;9.060;2023-02-28T17:49:58;23.80;;;13.90;;
4001;SDS011;2015;48.670;9.060;2023-02-28T17:52:30;15.67;;;13.17;;
4001;SDS011;2015;48.670;9.060;2023-02-28T17:55:08;19.15;;;14.40;;
4001;SDS011;2015;48.670;9.060;2023-02-28T17:57:40;22.00;;;14.70;;
4001;SDS011;2015;48.670;9.060;2023-02-28T18:00:14;17.30;;;13.07;;
4001;SDS011;2015;48.670;9.060;2023-02-28T18:02:47;18.23;;;14.40;;
4001;SDS011;2015;48.670;9.060;2023-02-28T18:05:19;18.70;;;13.87;;
4001;SDS011;2015;48.670;9.060;2023-02-28T18:07:51;19.13;;;14.63;;
4001;SDS011;2015;48.670;9.060;2023-02-28T18:10:23;23.60;;;15.07;;
4001;SDS011;2015;48.670;9.060;2023-02-28T18:12:54;18.13;;;13.40;;
4001;SDS011;2015;48.670;9.060;2023-02-28T18:15:27;23.10;;;14.80;;
4001;SDS011;2015;48.670;9.060;2023-02-28T18:17:58;18.67;;;12.70;;